createdAt,value
2022-10-01T00:01:17.794Z,75.80
2022-10-01T00:03:45.036Z,75.92
2022-10-01T00:06:20.449Z,75.80
2022-10-01T00:08:49.370Z,75.87
2022-10-01T00:11:19.224Z,76.04
2022-10-01T00:13:46.354Z,76.38
2022-10-01T00:16:16.410Z,76.54
2022-10-01T00:18:45.647Z,76.61
2022-10-01T00:21:15.045Z,76.66
2022-10-01T00:23:42.704Z,77.07
2022-10-01T00:26:17.777Z,77.22
2022-10-01T00:28:46.286Z,77.15
2022-10-01T00:31:14.937Z,77.29
2022-10-01T00:33:42.656Z,77.20
2022-10-01T00:36:10.681Z,77.20
2022-10-01T00:38:38.525Z,77.47
2022-10-01T00:41:05.453Z,77.85
2022-10-01T00:43:35.231Z,78.03
2022-10-01T00:46:25.504Z,77.94
2022-10-01T00:49:00.205Z,77.69
2022-10-01T00:51:33.323Z,77.81
2022-10-01T00:54:08.549Z,77.53
2022-10-01T00:56:36.074Z,77.75
2022-10-01T00:59:03.228Z,77.57
2022-10-01T01:01:30.257Z,77.49
2022-10-01T01:03:57.872Z,77.50
2022-10-01T01:06:24.512Z,77.27
2022-10-01T01:08:55.314Z,77.43
2022-10-01T01:11:34.379Z,77.46
2022-10-01T01:14:28.333Z,77.63
2022-10-01T01:17:01.497Z,77.64
2022-10-01T01:19:38.414Z,77.80
2022-10-01T01:22:07.706Z,77.99
2022-10-01T01:24:44.154Z,78.60
2022-10-01T01:27:51.379Z,78.45
2022-10-01T01:30:19.323Z,78.33
2022-10-01T01:32:55.515Z,78.36
2022-10-01T01:35:27.488Z,78.22
2022-10-01T01:38:02.195Z,77.85
2022-10-01T01:40:32.025Z,77.27
2022-10-01T01:43:00.652Z,77.10
2022-10-01T01:45:30.812Z,77.03
2022-10-01T01:48:02.332Z,76.66
2022-10-01T01:50:34.510Z,76.53
2022-10-01T01:53:02.214Z,76.24
2022-10-01T01:55:31.361Z,76.28
2022-10-01T01:57:59.037Z,76.33
2022-10-01T02:00:25.751Z,76.31
2022-10-01T02:02:54.261Z,76.35
2022-10-01T02:05:25.826Z,76.58
2022-10-01T02:08:15.010Z,76.69
2022-10-01T02:10:50.530Z,76.55
2022-10-01T02:13:30.122Z,76.74
2022-10-01T02:16:09.764Z,76.82
2022-10-01T02:19:11.046Z,76.76
2022-10-01T02:21:46.820Z,76.73
2022-10-01T02:24:36.518Z,76.49
2022-10-01T02:27:10.845Z,76.50
2022-10-01T02:29:39.783Z,76.96
2022-10-01T02:32:08.595Z,77.10
2022-10-01T02:34:35.872Z,77.21
2022-10-01T02:37:05.306Z,77.09
2022-10-01T02:39:34.706Z,77.14
2022-10-01T02:42:04.054Z,76.78
2022-10-01T02:44:38.680Z,76.81
2022-10-01T02:47:08.182Z,76.51
2022-10-01T02:49:36.985Z,76.84
2022-10-01T02:52:09.896Z,76.90
2022-10-01T02:54:47.826Z,76.86
2022-10-01T02:57:29.654Z,77.05
2022-10-01T03:00:01.556Z,77.34
2022-10-01T03:02:31.656Z,77.63
2022-10-01T03:04:59.380Z,77.88
2022-10-01T03:07:27.760Z,77.91
2022-10-01T03:09:54.730Z,78.04
2022-10-01T03:12:22.565Z,77.81
2022-10-01T03:14:49.835Z,77.66
2022-10-01T03:17:16.998Z,77.58
2022-10-01T03:19:43.636Z,77.51
2022-10-01T03:22:13.090Z,77.39
2022-10-01T03:24:39.852Z,77.44
2022-10-01T03:27:06.984Z,77.15
2022-10-01T03:29:33.739Z,77.30
2022-10-01T03:32:00.600Z,77.20
2022-10-01T03:34:27.331Z,77.32
2022-10-01T03:36:54.011Z,77.37
2022-10-01T03:39:20.790Z,77.24
2022-10-01T03:41:47.369Z,77.08
2022-10-01T03:44:14.053Z,77.00
2022-10-01T03:46:40.797Z,77.19
2022-10-01T03:49:07.562Z,77.27
2022-10-01T03:51:36.362Z,77.35
2022-10-01T03:54:05.248Z,77.56
2022-10-01T03:56:31.877Z,77.43
2022-10-01T03:58:58.492Z,77.44
2022-10-01T04:01:26.420Z,77.38
2022-10-01T04:03:53.241Z,77.45
2022-10-01T04:06:20.303Z,77.25
2022-10-01T04:08:47.327Z,77.04
2022-10-01T04:11:14.427Z,76.84
2022-10-01T04:13:41.039Z,76.83
2022-10-01T04:16:08.217Z,76.53
2022-10-01T04:18:35.196Z,76.50
2022-10-01T04:21:02.621Z,76.76
2022-10-01T04:23:29.390Z,77.12
2022-10-01T04:25:59.679Z,77.40
2022-10-01T04:28:26.383Z,77.29
2022-10-01T04:31:13.380Z,77.29
2022-10-01T04:33:40.140Z,77.17
2022-10-01T04:36:07.038Z,77.25
2022-10-01T04:38:34.758Z,77.41
2022-10-01T04:41:01.344Z,77.30
2022-10-01T04:43:28.062Z,77.08
2022-10-01T04:45:54.698Z,76.75
2022-10-01T04:48:21.656Z,76.73
2022-10-01T04:50:48.288Z,77.07
2022-10-01T04:53:15.000Z,77.26
2022-10-01T04:55:42.419Z,77.61
2022-10-01T04:58:09.516Z,77.98
2022-10-01T05:00:36.525Z,78.01
2022-10-01T05:03:03.110Z,78.16
2022-10-01T05:05:33.008Z,78.28
2022-10-01T05:07:59.656Z,78.17
2022-10-01T05:10:26.608Z,78.34
2022-10-01T05:12:53.526Z,78.38
2022-10-01T05:15:20.573Z,78.24
2022-10-01T05:17:47.929Z,78.23
2022-10-01T05:20:20.744Z,78.19
2022-10-01T05:22:49.481Z,78.18
2022-10-01T05:25:17.494Z,78.16
2022-10-01T05:27:44.319Z,78.00
2022-10-01T05:30:12.867Z,78.07
2022-10-01T05:32:40.489Z,78.09
2022-10-01T05:35:08.510Z,78.00
2022-10-01T05:37:36.449Z,78.20
2022-10-01T05:40:03.989Z,77.99
2022-10-01T05:42:30.537Z,77.92
2022-10-01T05:44:57.733Z,77.83
2022-10-01T05:47:24.337Z,78.08
2022-10-01T05:49:51.182Z,78.14
2022-10-01T05:52:17.848Z,78.26
2022-10-01T05:54:44.507Z,78.38
2022-10-01T05:57:11.463Z,78.34
2022-10-01T05:59:38.033Z,78.26
2022-10-01T06:02:04.865Z,78.11
2022-10-01T06:04:31.875Z,78.19
2022-10-01T06:06:58.997Z,78.03
2022-10-01T06:09:25.641Z,78.27
2022-10-01T06:11:52.340Z,78.09
2022-10-01T06:14:19.009Z,78.15
2022-10-01T06:16:47.273Z,78.09
2022-10-01T06:19:14.030Z,78.22
2022-10-01T06:21:40.882Z,78.19
2022-10-01T06:24:07.580Z,78.11
2022-10-01T06:26:34.273Z,78.06
2022-10-01T06:29:01.383Z,77.78
2022-10-01T06:31:29.080Z,77.91
2022-10-01T06:33:55.848Z,77.78
2022-10-01T06:36:24.273Z,77.50
2022-10-01T06:38:50.987Z,77.53
2022-10-01T06:41:18.644Z,77.56
2022-10-01T06:43:45.317Z,77.54
2022-10-01T06:46:12.006Z,77.59
2022-10-01T06:48:38.957Z,77.35
2022-10-01T06:51:05.937Z,77.24
2022-10-01T06:53:32.888Z,76.97
2022-10-01T06:56:07.798Z,76.99
2022-10-01T06:58:35.065Z,76.79
2022-10-01T07:01:03.882Z,76.19
2022-10-01T07:03:31.353Z,76.07
2022-10-01T07:06:05.727Z,75.75
2022-10-01T07:08:33.403Z,75.50
2022-10-01T07:11:02.822Z,74.91
2022-10-01T07:13:29.973Z,74.46
2022-10-01T07:15:56.943Z,73.98
2022-10-01T07:18:24.110Z,73.51
2022-10-01T07:20:50.739Z,72.89
2022-10-01T07:23:17.751Z,72.22
2022-10-01T07:25:45.059Z,71.38
2022-10-01T07:28:19.088Z,70.76
2022-10-01T07:30:47.599Z,70.70
2022-10-01T07:33:18.276Z,70.22
2022-10-01T07:35:47.994Z,69.90
2022-10-01T07:38:14.899Z,70.14
2022-10-01T07:40:41.967Z,69.78
2022-10-01T07:43:09.195Z,69.47
2022-10-01T07:45:35.849Z,68.94
2022-10-01T07:48:04.018Z,67.93
2022-10-01T07:50:30.858Z,67.21
2022-10-01T07:52:59.045Z,66.61
2022-10-01T07:55:28.604Z,66.39
2022-10-01T07:57:57.671Z,66.25
2022-10-01T08:00:26.018Z,66.03
2022-10-01T08:02:54.332Z,65.86
2022-10-01T08:05:23.332Z,66.13
2022-10-01T08:07:50.535Z,65.27
2022-10-01T08:10:19.868Z,64.53
2022-10-01T08:12:46.710Z,64.79
2022-10-01T08:15:16.062Z,64.34
2022-10-01T08:17:43.657Z,63.48
2022-10-01T08:20:12.186Z,62.86
2022-10-01T08:22:42.111Z,62.96
2022-10-01T08:25:09.969Z,62.50
2022-10-01T08:27:37.024Z,61.80
2022-10-01T08:30:04.299Z,61.40
2022-10-01T08:32:31.287Z,61.10
2022-10-01T08:34:59.086Z,60.48
2022-10-01T08:37:27.333Z,59.98
2022-10-01T08:39:55.301Z,59.73
2022-10-01T08:43:03.353Z,59.62
2022-10-01T08:45:40.346Z,58.75
2022-10-01T08:48:38.741Z,58.13
2022-10-01T08:51:15.962Z,57.23
2022-10-01T08:53:48.389Z,57.64
2022-10-01T08:56:39.966Z,56.96
2022-10-01T08:59:37.854Z,55.73
2022-10-01T09:02:22.439Z,54.98
2022-10-01T09:04:55.081Z,54.40
2022-10-01T09:07:29.730Z,53.97
2022-10-01T09:10:04.531Z,53.39
2022-10-01T09:12:50.237Z,53.09
2022-10-01T09:15:31.720Z,53.28
2022-10-01T09:18:21.983Z,52.69
2022-10-01T09:20:55.242Z,51.75
2022-10-01T09:23:30.145Z,52.30
2022-10-01T09:25:59.370Z,51.96
2022-10-01T09:28:35.142Z,51.89
2022-10-01T09:31:24.976Z,51.39
2022-10-01T09:33:58.139Z,51.21
2022-10-01T09:36:52.319Z,52.02
2022-10-01T09:39:32.258Z,51.55
2022-10-01T09:42:00.022Z,51.16
2022-10-01T09:44:31.695Z,50.82
2022-10-01T09:46:58.501Z,50.38
2022-10-01T09:49:34.238Z,49.80
2022-10-01T09:52:28.315Z,49.73
2022-10-01T09:55:39.032Z,49.11
2022-10-01T09:58:13.932Z,48.70
2022-10-01T10:00:41.940Z,48.21
2022-10-01T10:03:08.992Z,48.25
2022-10-01T10:05:48.233Z,47.86
2022-10-01T10:08:14.994Z,48.02
2022-10-01T10:10:58.382Z,47.88
2022-10-01T10:13:31.932Z,47.65
2022-10-01T10:16:00.685Z,47.46
2022-10-01T10:18:36.337Z,47.18
2022-10-01T10:21:08.235Z,47.69
2022-10-01T10:23:34.983Z,47.35
2022-10-01T10:26:04.939Z,46.75
2022-10-01T10:28:46.000Z,46.98
2022-10-01T10:31:25.339Z,45.94
2022-10-01T10:33:58.490Z,46.11
2022-10-01T10:36:32.744Z,45.88
2022-10-01T10:39:00.519Z,44.67
2022-10-01T10:41:29.615Z,44.70
2022-10-01T10:44:01.574Z,45.15
2022-10-01T10:46:34.299Z,44.45
2022-10-01T10:49:10.711Z,44.82
2022-10-01T10:51:56.462Z,44.59
2022-10-01T10:54:37.747Z,44.37
2022-10-01T10:57:23.712Z,44.44
2022-10-01T10:59:59.663Z,44.77
2022-10-01T11:02:32.035Z,44.52
2022-10-01T11:05:20.584Z,44.11
2022-10-01T11:07:48.793Z,43.49
2022-10-01T11:10:52.855Z,42.95
2022-10-01T11:13:34.208Z,42.49
2022-10-01T11:16:30.381Z,42.07
2022-10-01T11:19:15.490Z,42.13
2022-10-01T11:21:48.660Z,41.69
2022-10-01T11:24:38.922Z,41.69
2022-10-01T11:27:36.453Z,41.93
2022-10-01T11:30:21.166Z,41.96
2022-10-01T11:33:03.574Z,41.73
2022-10-01T11:35:37.271Z,41.92
2022-10-01T11:38:42.081Z,41.68
2022-10-01T11:41:16.743Z,41.37
2022-10-01T11:43:51.496Z,41.49
2022-10-01T11:46:41.488Z,41.41
2022-10-01T11:49:32.788Z,42.10
2022-10-01T11:52:09.355Z,42.66
2022-10-01T11:54:42.240Z,42.53
2022-10-01T11:57:34.177Z,42.03
2022-10-01T12:00:13.922Z,42.05
2022-10-01T12:03:00.543Z,41.94
2022-10-01T12:05:31.518Z,42.33
2022-10-01T12:08:11.829Z,42.67
2022-10-01T12:10:45.167Z,43.09
2022-10-01T12:13:33.289Z,43.18
2022-10-01T12:17:04.713Z,43.43
2022-10-01T12:19:38.970Z,43.41
2022-10-01T12:22:20.311Z,43.76
2022-10-01T12:24:50.682Z,43.97
2022-10-01T12:27:26.531Z,43.97
2022-10-01T12:30:02.117Z,44.43
2022-10-01T12:32:37.655Z,44.74
2022-10-01T12:35:07.125Z,45.05
2022-10-01T12:37:55.852Z,44.49
2022-10-01T12:41:07.163Z,45.05
2022-10-01T12:43:43.779Z,45.12
2022-10-01T12:46:35.092Z,45.15
2022-10-01T12:49:24.258Z,44.89
2022-10-01T12:52:06.070Z,44.44
2022-10-01T12:54:51.005Z,44.67
2022-10-01T12:57:53.007Z,44.60
2022-10-01T13:00:22.855Z,44.24
2022-10-01T13:03:18.373Z,44.63
2022-10-01T13:06:14.617Z,45.11
2022-10-01T13:09:23.021Z,45.93
2022-10-01T13:11:55.719Z,46.91
2022-10-01T13:14:23.116Z,46.74
2022-10-01T13:17:11.706Z,46.70
2022-10-01T13:19:48.231Z,46.60
2022-10-01T13:22:19.552Z,46.71
2022-10-01T13:25:10.265Z,46.71
2022-10-01T13:27:42.531Z,47.16
2022-10-01T13:30:25.058Z,47.77
2022-10-01T13:33:01.183Z,48.58
2022-10-01T13:35:35.733Z,48.49
2022-10-01T13:38:17.580Z,48.53
2022-10-01T13:40:44.890Z,49.33
2022-10-01T13:43:21.707Z,49.70
2022-10-01T13:45:51.527Z,49.95
2022-10-01T13:48:32.607Z,50.81
2022-10-01T13:51:11.690Z,51.13
2022-10-01T13:53:41.910Z,51.75
2022-10-01T13:56:14.723Z,52.21
2022-10-01T13:58:43.802Z,52.66
2022-10-01T14:01:21.401Z,53.73
2022-10-01T14:04:06.068Z,54.77
2022-10-01T14:06:42.736Z,55.16
2022-10-01T14:09:26.309Z,55.69
2022-10-01T14:12:35.605Z,56.12
2022-10-01T14:15:47.724Z,56.82
2022-10-01T14:18:22.352Z,56.62
2022-10-01T14:21:18.084Z,56.68
2022-10-01T14:24:12.073Z,56.52
2022-10-01T14:27:17.180Z,56.86
2022-10-01T14:30:16.258Z,57.18
2022-10-01T14:33:10.702Z,57.14
2022-10-01T14:35:48.428Z,57.68
2022-10-01T14:38:20.643Z,57.91
2022-10-01T14:40:49.167Z,58.15
2022-10-01T14:43:18.671Z,58.20
2022-10-01T14:46:03.110Z,58.11
2022-10-01T14:48:31.942Z,58.63
2022-10-01T14:51:02.156Z,58.45
2022-10-01T14:53:32.185Z,58.20
2022-10-01T14:56:20.389Z,58.58
2022-10-01T14:58:55.324Z,59.19
2022-10-01T15:01:23.846Z,59.55
2022-10-01T15:03:51.595Z,60.00
2022-10-01T15:06:21.458Z,60.50
2022-10-01T15:08:53.561Z,60.46
2022-10-01T15:11:24.299Z,60.46
2022-10-01T15:13:53.231Z,60.46
2022-10-01T15:16:25.348Z,60.45
2022-10-01T15:18:59.343Z,60.74
2022-10-01T15:21:29.115Z,60.89
2022-10-01T15:23:57.990Z,61.41
2022-10-01T15:26:31.954Z,61.75
2022-10-01T15:29:12.003Z,62.34
2022-10-01T15:31:39.917Z,62.48
2022-10-01T15:34:11.321Z,62.82
2022-10-01T15:36:39.050Z,63.26
2022-10-01T15:39:16.024Z,63.62
2022-10-01T15:41:42.707Z,63.90
2022-10-01T15:44:49.413Z,63.84
2022-10-01T15:47:37.467Z,63.72
2022-10-01T15:50:10.212Z,64.06
2022-10-01T15:52:55.566Z,64.57
2022-10-01T15:55:49.569Z,64.45
2022-10-01T15:58:20.919Z,64.78
2022-10-01T16:00:48.831Z,65.39
2022-10-01T16:03:21.453Z,65.74
2022-10-01T16:05:48.720Z,65.93
2022-10-01T16:08:21.942Z,66.11
2022-10-01T16:11:09.777Z,65.97
2022-10-01T16:13:39.213Z,65.98
2022-10-01T16:16:26.369Z,66.55
2022-10-01T16:19:19.057Z,67.15
2022-10-01T16:22:17.531Z,67.40
2022-10-01T16:24:47.353Z,67.39
2022-10-01T16:27:19.870Z,67.67
2022-10-01T16:30:01.229Z,67.98
2022-10-01T16:32:31.431Z,67.92
2022-10-01T16:35:17.711Z,68.08
2022-10-01T16:37:45.802Z,68.17
2022-10-01T16:40:16.182Z,68.25
2022-10-01T16:42:44.373Z,68.32
2022-10-01T16:45:19.836Z,68.65
2022-10-01T16:47:46.814Z,68.49
2022-10-01T16:50:16.494Z,68.58
2022-10-01T16:52:43.616Z,68.41
2022-10-01T16:55:22.668Z,68.50
2022-10-01T16:57:50.301Z,68.44
2022-10-01T17:00:19.591Z,68.41
2022-10-01T17:02:47.159Z,68.25
2022-10-01T17:05:31.761Z,68.15
2022-10-01T17:08:00.922Z,67.95
2022-10-01T17:10:31.084Z,67.71
2022-10-01T17:12:59.475Z,67.49
2022-10-01T17:15:28.327Z,67.47
2022-10-01T17:17:56.909Z,67.34
2022-10-01T17:20:26.418Z,67.63
2022-10-01T17:22:52.988Z,67.64
2022-10-01T17:25:25.322Z,67.67
2022-10-01T17:27:52.377Z,67.67
2022-10-01T17:30:19.050Z,67.66
2022-10-01T17:32:46.957Z,68.45
2022-10-01T17:35:15.371Z,69.29
2022-10-01T17:37:42.795Z,69.59
2022-10-01T17:40:11.045Z,69.49
2022-10-01T17:42:37.799Z,69.34
2022-10-01T17:45:07.625Z,69.32
2022-10-01T17:47:34.342Z,69.38
2022-10-01T17:50:02.962Z,69.49
2022-10-01T17:52:29.966Z,69.78
2022-10-01T17:54:56.680Z,69.94
2022-10-01T17:57:23.383Z,70.00
2022-10-01T17:59:51.702Z,70.11
2022-10-01T18:02:40.432Z,70.53
2022-10-01T18:05:09.531Z,70.54
2022-10-01T18:07:39.200Z,70.50
2022-10-01T18:10:07.654Z,70.28
2022-10-01T18:12:35.001Z,70.11
2022-10-01T18:15:02.068Z,70.11
2022-10-01T18:17:29.399Z,70.05
2022-10-01T18:19:57.235Z,70.39
2022-10-01T18:22:24.239Z,70.76
2022-10-01T18:24:50.847Z,71.00
2022-10-01T18:27:17.670Z,70.99
2022-10-01T18:29:44.356Z,71.18
2022-10-01T18:32:19.425Z,71.87
2022-10-01T18:34:59.148Z,72.71
2022-10-01T18:37:40.291Z,72.73
2022-10-01T18:40:28.977Z,72.74
2022-10-01T18:43:13.194Z,72.84
2022-10-01T18:46:01.105Z,73.11
2022-10-01T18:48:33.662Z,73.63
2022-10-01T18:51:35.342Z,73.91
2022-10-01T18:55:00.245Z,74.68
2022-10-01T18:57:58.461Z,74.91
2022-10-01T19:00:31.899Z,75.40
2022-10-01T19:03:32.912Z,76.10
2022-10-01T19:06:23.951Z,76.22
2022-10-01T19:09:24.351Z,76.46
2022-10-01T19:12:00.383Z,76.62
2022-10-01T19:14:45.111Z,76.86
2022-10-01T19:17:24.769Z,77.15
2022-10-01T19:20:28.744Z,77.26
2022-10-01T19:23:19.936Z,77.40
2022-10-01T19:26:01.859Z,77.77
2022-10-01T19:28:42.940Z,77.67
2022-10-01T19:31:17.587Z,77.81
2022-10-01T19:33:52.500Z,77.94
2022-10-01T19:36:34.366Z,78.15
2022-10-01T19:39:05.369Z,78.52
2022-10-01T19:41:49.116Z,78.41
2022-10-01T19:44:24.219Z,78.64
2022-10-01T19:49:38.602Z,78.33
2022-10-01T19:52:18.367Z,78.43
2022-10-01T19:54:54.757Z,78.46
2022-10-01T19:57:34.809Z,78.52
2022-10-01T20:00:10.157Z,78.46
2022-10-01T20:03:00.546Z,77.97
2022-10-01T20:05:32.176Z,77.65
2022-10-01T20:08:25.007Z,77.67
2022-10-01T20:10:54.960Z,77.28
2022-10-01T20:13:40.170Z,77.20
2022-10-01T20:16:16.578Z,76.81
2022-10-01T20:18:49.292Z,76.72
2022-10-01T20:21:55.507Z,76.65
2022-10-01T20:24:42.658Z,76.44
2022-10-01T20:27:37.399Z,76.33
2022-10-01T20:30:06.776Z,76.02
2022-10-01T20:32:46.759Z,75.91
2022-10-01T20:35:19.190Z,75.96
2022-10-01T20:38:00.379Z,76.02
2022-10-01T20:40:36.096Z,76.49
2022-10-01T20:43:21.879Z,76.53
2022-10-01T20:45:53.503Z,76.26
2022-10-01T20:48:39.820Z,76.00
2022-10-01T20:51:12.363Z,75.82
2022-10-01T20:53:45.280Z,75.87
2022-10-01T20:56:32.490Z,75.56
2022-10-01T20:59:05.151Z,75.16
2022-10-01T21:01:41.815Z,75.18
2022-10-01T21:04:21.810Z,75.09
2022-10-01T21:06:51.866Z,75.37
2022-10-01T21:09:28.006Z,75.75
2022-10-01T21:12:03.104Z,75.91
2022-10-01T21:14:38.618Z,75.98
2022-10-01T21:17:08.993Z,75.80
2022-10-01T21:19:57.154Z,75.74
2022-10-01T21:22:56.510Z,75.98
2022-10-01T21:25:38.180Z,75.73
2022-10-01T21:28:26.853Z,75.55
2022-10-01T21:31:18.070Z,75.75
2022-10-01T21:34:00.994Z,76.31
2022-10-01T21:36:48.017Z,76.63
2022-10-01T21:39:30.602Z,76.96
2022-10-01T21:42:15.899Z,77.35
2022-10-01T21:44:51.345Z,77.44
2022-10-01T21:47:24.118Z,77.55
2022-10-01T21:49:57.185Z,77.16
2022-10-01T21:52:31.580Z,77.10
2022-10-01T21:55:25.279Z,76.62
2022-10-01T21:58:13.961Z,76.59
2022-10-01T22:00:42.799Z,76.48
2022-10-01T22:03:12.308Z,76.26
2022-10-01T22:05:57.765Z,76.17
2022-10-01T22:08:41.789Z,75.89
2022-10-01T22:11:15.669Z,75.90
2022-10-01T22:13:53.530Z,75.97
2022-10-01T22:16:22.530Z,76.06
2022-10-01T22:19:06.464Z,76.07
2022-10-01T22:21:59.651Z,76.09
2022-10-01T22:24:39.737Z,76.04
2022-10-01T22:27:22.639Z,76.20
2022-10-01T22:30:02.898Z,76.15
2022-10-01T22:32:40.403Z,76.24
2022-10-01T22:35:15.845Z,76.76
2022-10-01T22:38:13.862Z,76.81
2022-10-01T22:40:51.643Z,76.80
2022-10-01T22:43:18.814Z,76.51
2022-10-01T22:46:09.858Z,76.81
2022-10-01T22:48:57.284Z,76.50
2022-10-01T22:51:42.434Z,76.34
2022-10-01T22:54:21.881Z,76.13
2022-10-01T22:57:05.334Z,76.27
2022-10-01T23:00:09.696Z,76.33
2022-10-01T23:02:39.708Z,76.30
2022-10-01T23:05:30.101Z,76.51
2022-10-01T23:08:09.698Z,76.53
2022-10-01T23:11:05.918Z,76.35
2022-10-01T23:13:44.836Z,76.35
2022-10-01T23:16:19.814Z,76.24
2022-10-01T23:18:58.993Z,76.53
2022-10-01T23:21:35.025Z,76.73
2022-10-01T23:24:14.646Z,76.51
2022-10-01T23:27:27.857Z,76.46
2022-10-01T23:30:10.474Z,76.46
2022-10-01T23:33:12.183Z,76.41
2022-10-01T23:35:47.945Z,76.47
2022-10-01T23:38:20.852Z,76.49
2022-10-01T23:40:51.936Z,76.67
2022-10-01T23:43:37.807Z,76.64
2022-10-01T23:46:22.625Z,76.47
2022-10-01T23:49:05.484Z,76.29
2022-10-01T23:51:47.889Z,76.05
2022-10-01T23:54:33.276Z,76.08
2022-10-01T23:57:12.670Z,75.80
2022-10-01T23:59:51.809Z,75.79
